createdAt,value
2022-11-17T00:01:54.836Z,3.40
2022-11-17T00:04:25.559Z,3.00
2022-11-17T00:06:54.961Z,3.27
2022-11-17T00:09:24.527Z,2.90
2022-11-17T00:12:13.042Z,3.10
2022-11-17T00:14:43.242Z,2.93
2022-11-17T00:17:15.101Z,3.10
2022-11-17T00:20:01.844Z,2.90
2022-11-17T00:22:33.350Z,2.87
2022-11-17T00:25:02.962Z,2.93
2022-11-17T00:27:34.231Z,2.90
2022-11-17T00:30:03.941Z,3.00
2022-11-17T00:32:50.680Z,3.03
2022-11-17T00:35:20.656Z,2.57
2022-11-17T00:38:03.899Z,2.60
2022-11-17T00:40:33.548Z,2.97
2022-11-17T00:43:04.534Z,3.10
2022-11-17T00:45:34.062Z,3.50
2022-11-17T00:48:04.148Z,3.00
2022-11-17T00:50:33.800Z,3.00
2022-11-17T00:53:03.275Z,2.90
2022-11-17T00:55:33.018Z,2.70
2022-11-17T00:58:04.455Z,3.10
2022-11-17T01:00:34.144Z,2.83
2022-11-17T01:03:03.829Z,2.80
2022-11-17T01:05:35.800Z,2.90
2022-11-17T01:08:05.310Z,2.80
2022-11-17T01:10:37.155Z,2.93
2022-11-17T01:13:08.842Z,2.90
2022-11-17T01:15:38.315Z,2.57
2022-11-17T01:18:07.839Z,2.83
2022-11-17T01:20:37.669Z,2.90
2022-11-17T01:23:07.314Z,2.60
2022-11-17T01:25:38.518Z,2.90
2022-11-17T01:28:09.563Z,3.60
2022-11-17T01:30:39.012Z,3.03
2022-11-17T01:33:08.571Z,2.80
2022-11-17T01:35:37.996Z,2.77
2022-11-17T01:38:07.691Z,2.90
2022-11-17T01:40:37.254Z,2.80
2022-11-17T01:43:11.886Z,2.80
2022-11-17T01:45:41.595Z,2.93
2022-11-17T01:48:15.134Z,2.93
2022-11-17T01:50:49.757Z,2.73
2022-11-17T01:53:22.739Z,3.27
2022-11-17T01:55:56.444Z,3.20
2022-11-17T01:58:32.600Z,3.07
2022-11-17T02:01:02.032Z,2.93
2022-11-17T02:03:35.828Z,3.20
2022-11-17T02:06:09.226Z,2.93
2022-11-17T02:08:41.645Z,2.77
2022-11-17T02:11:15.820Z,3.13
2022-11-17T02:13:47.364Z,3.20
2022-11-17T02:16:18.237Z,3.50
2022-11-17T02:18:50.074Z,3.10
2022-11-17T02:21:50.854Z,3.50
2022-11-17T02:24:52.913Z,3.00
2022-11-17T02:27:58.096Z,2.90
2022-11-17T02:30:35.779Z,3.20
2022-11-17T02:33:13.312Z,3.50
2022-11-17T02:35:49.173Z,3.40
2022-11-17T02:38:26.624Z,3.27
2022-11-17T02:41:05.349Z,3.30
2022-11-17T02:43:57.315Z,3.00
2022-11-17T02:46:33.006Z,3.83
2022-11-17T02:49:06.832Z,3.20
2022-11-17T02:51:37.967Z,3.13
2022-11-17T02:54:07.753Z,3.13
2022-11-17T02:56:43.392Z,3.33
2022-11-17T02:59:15.632Z,2.67
2022-11-17T03:02:21.179Z,2.80
2022-11-17T03:05:05.396Z,3.13
2022-11-17T03:07:58.474Z,3.20
2022-11-17T03:10:36.089Z,2.37
2022-11-17T03:13:14.749Z,2.80
2022-11-17T03:15:52.258Z,3.23
2022-11-17T03:18:30.109Z,3.17
2022-11-17T03:21:07.634Z,3.13
2022-11-17T03:23:44.080Z,3.40
2022-11-17T03:26:17.364Z,3.07
2022-11-17T03:28:48.299Z,3.17
2022-11-17T03:31:19.508Z,3.40
2022-11-17T03:33:51.596Z,3.20
2022-11-17T03:36:25.841Z,3.30
2022-11-17T03:39:01.901Z,3.30
2022-11-17T03:41:35.569Z,3.27
2022-11-17T03:44:07.535Z,3.50
2022-11-17T03:46:39.621Z,2.90
2022-11-17T03:49:19.453Z,3.17
2022-11-17T03:51:49.092Z,3.10
2022-11-17T03:54:19.280Z,3.07
2022-11-17T03:56:57.026Z,3.27
2022-11-17T03:59:29.352Z,2.60
2022-11-17T04:01:58.991Z,3.40
2022-11-17T04:04:51.112Z,2.93
2022-11-17T04:07:20.613Z,2.77
2022-11-17T04:09:50.122Z,2.97
2022-11-17T04:12:33.324Z,3.10
2022-11-17T04:15:20.504Z,3.00
2022-11-17T04:17:50.367Z,3.03
2022-11-17T04:20:21.402Z,3.20
2022-11-17T04:23:07.399Z,3.10
2022-11-17T04:25:54.394Z,3.20
2022-11-17T04:28:40.274Z,2.87
2022-11-17T04:31:15.305Z,2.77
2022-11-17T04:33:46.592Z,2.90
2022-11-17T04:36:19.424Z,3.20
2022-11-17T04:38:50.627Z,3.17
2022-11-17T04:41:38.570Z,3.00
2022-11-17T04:44:09.808Z,3.37
2022-11-17T04:46:40.910Z,3.60
2022-11-17T04:49:11.866Z,3.20
2022-11-17T04:51:43.666Z,2.80
2022-11-17T04:54:15.488Z,3.03
2022-11-17T04:56:44.871Z,3.13
2022-11-17T04:59:14.508Z,3.23
2022-11-17T05:01:44.196Z,3.07
2022-11-17T05:04:15.253Z,3.40
2022-11-17T05:06:46.803Z,2.80
2022-11-17T05:09:18.344Z,2.87
2022-11-17T05:12:05.048Z,3.87
2022-11-17T05:14:35.040Z,3.07
2022-11-17T05:17:13.363Z,3.00
2022-11-17T05:19:45.827Z,3.17
2022-11-17T05:22:36.348Z,2.73
2022-11-17T05:25:06.844Z,3.00
2022-11-17T05:27:36.721Z,2.90
2022-11-17T05:30:08.661Z,3.00
2022-11-17T05:32:38.897Z,3.23
2022-11-17T05:35:10.468Z,3.37
2022-11-17T05:37:50.014Z,3.03
2022-11-17T05:40:20.935Z,3.20
2022-11-17T05:42:56.851Z,3.00
2022-11-17T05:45:28.807Z,2.93
2022-11-17T05:48:03.208Z,2.63
2022-11-17T05:50:36.201Z,3.50
2022-11-17T05:53:07.550Z,2.87
2022-11-17T05:55:38.050Z,2.80
2022-11-17T05:58:14.750Z,3.50
2022-11-17T06:00:45.141Z,2.83
2022-11-17T06:03:20.760Z,3.30
2022-11-17T06:05:51.429Z,3.30
2022-11-17T06:08:34.304Z,3.40
2022-11-17T06:11:06.735Z,3.23
2022-11-17T06:13:37.789Z,3.00
2022-11-17T06:16:12.700Z,3.00
2022-11-17T06:18:49.122Z,3.27
2022-11-17T06:21:20.519Z,2.87
2022-11-17T06:24:10.868Z,3.50
2022-11-17T06:26:44.606Z,4.10
2022-11-17T06:29:17.910Z,3.30
2022-11-17T06:31:49.655Z,3.23
2022-11-17T06:34:19.820Z,5.83
2022-11-17T06:36:52.845Z,2.97
2022-11-17T06:39:34.715Z,3.17
2022-11-17T06:42:05.128Z,2.93
2022-11-17T06:44:35.276Z,3.23
2022-11-17T06:47:05.980Z,2.90
2022-11-17T06:49:37.519Z,2.80
2022-11-17T06:52:07.466Z,3.17
2022-11-17T06:54:40.933Z,3.33
2022-11-17T06:57:13.179Z,3.73
2022-11-17T06:59:43.476Z,3.23
2022-11-17T07:02:14.076Z,3.50
2022-11-17T07:04:44.356Z,3.17
2022-11-17T07:07:15.223Z,3.47
2022-11-17T07:09:47.427Z,3.60
2022-11-17T07:12:18.216Z,3.40
2022-11-17T07:14:48.949Z,3.40
2022-11-17T07:17:21.253Z,3.30
2022-11-17T07:19:51.737Z,3.40
2022-11-17T07:22:24.676Z,3.43
2022-11-17T07:24:56.519Z,3.80
2022-11-17T07:27:26.527Z,3.53
2022-11-17T07:29:56.736Z,3.87
2022-11-17T07:32:26.606Z,3.70
2022-11-17T07:34:56.618Z,3.60
2022-11-17T07:37:27.537Z,3.80
2022-11-17T07:40:03.662Z,3.80
2022-11-17T07:42:34.468Z,3.70
2022-11-17T07:45:06.136Z,3.70
2022-11-17T07:47:36.671Z,4.17
2022-11-17T07:50:07.100Z,4.50
2022-11-17T07:52:41.290Z,4.23
2022-11-17T07:55:12.641Z,4.17
2022-11-17T07:57:42.128Z,4.40
2022-11-17T08:00:13.257Z,4.90
2022-11-17T08:02:43.004Z,4.43
2022-11-17T08:05:12.445Z,4.80
2022-11-17T08:07:42.659Z,4.20
2022-11-17T08:10:14.670Z,4.30
2022-11-17T08:12:45.100Z,4.57
2022-11-17T08:15:15.131Z,4.37
2022-11-17T08:17:46.600Z,4.30
2022-11-17T08:20:18.459Z,4.23
2022-11-17T08:22:49.072Z,4.47
2022-11-17T08:25:21.190Z,3.93
2022-11-17T08:27:52.550Z,3.93
2022-11-17T08:30:22.969Z,3.77
2022-11-17T08:32:55.326Z,4.37
2022-11-17T08:35:35.836Z,4.13
2022-11-17T08:38:07.210Z,4.33
2022-11-17T08:40:39.154Z,4.27
2022-11-17T08:43:09.155Z,4.30
2022-11-17T08:45:39.127Z,4.50
2022-11-17T08:48:14.809Z,4.57
2022-11-17T08:50:44.809Z,4.83
2022-11-17T08:53:16.119Z,4.83
2022-11-17T08:55:47.759Z,4.67
2022-11-17T08:58:18.429Z,4.87
2022-11-17T09:00:48.678Z,4.90
2022-11-17T09:03:20.894Z,5.03
2022-11-17T09:05:51.575Z,5.87
2022-11-17T09:11:15.039Z,6.30
2022-11-17T09:13:47.043Z,5.53
2022-11-17T09:16:19.635Z,5.00
2022-11-17T09:18:49.570Z,5.63
2022-11-17T09:21:20.016Z,5.53
2022-11-17T09:23:49.959Z,4.90
2022-11-17T09:26:21.139Z,5.30
2022-11-17T09:28:51.039Z,4.80
2022-11-17T09:31:24.261Z,5.40
2022-11-17T09:33:59.352Z,4.90
2022-11-17T09:36:31.573Z,5.27
2022-11-17T09:39:01.829Z,5.57
2022-11-17T09:41:44.808Z,5.77
2022-11-17T09:44:24.916Z,5.70
2022-11-17T09:47:04.418Z,5.90
2022-11-17T09:49:49.147Z,6.60
2022-11-17T09:52:27.033Z,5.60
2022-11-17T09:55:00.938Z,5.60
2022-11-17T09:57:45.298Z,6.03
2022-11-17T10:00:18.036Z,5.20
2022-11-17T10:02:48.744Z,5.73
2022-11-17T10:05:22.944Z,6.23
2022-11-17T10:07:55.841Z,5.90
2022-11-17T10:10:37.073Z,5.53
2022-11-17T10:13:26.990Z,6.40
2022-11-17T10:15:59.520Z,6.40
2022-11-17T10:18:37.552Z,6.70
2022-11-17T10:21:10.680Z,6.30
2022-11-17T10:23:46.657Z,6.37
2022-11-17T10:26:18.250Z,6.47
2022-11-17T10:28:50.249Z,7.17
2022-11-17T10:31:22.610Z,8.03
2022-11-17T10:33:53.514Z,7.03
2022-11-17T10:36:28.400Z,6.87
2022-11-17T10:38:59.851Z,6.83
2022-11-17T10:41:34.891Z,6.93
2022-11-17T10:44:08.791Z,7.20
2022-11-17T10:47:01.678Z,6.53
2022-11-17T10:49:36.330Z,6.93
2022-11-17T10:52:08.662Z,6.63
2022-11-17T10:54:39.839Z,7.53
2022-11-17T10:57:12.814Z,8.17
2022-11-17T10:59:52.103Z,8.40
2022-11-17T11:02:31.740Z,7.40
2022-11-17T11:05:11.160Z,6.37
2022-11-17T11:07:41.449Z,6.60
2022-11-17T11:10:23.472Z,5.93
2022-11-17T11:13:01.766Z,5.97
2022-11-17T11:15:36.969Z,6.90
2022-11-17T11:18:14.104Z,6.23
2022-11-17T11:20:49.254Z,6.47
2022-11-17T11:23:27.585Z,6.40
2022-11-17T11:26:04.230Z,5.93
2022-11-17T11:28:48.998Z,5.77
2022-11-17T11:31:30.042Z,6.00
2022-11-17T11:34:10.782Z,6.00
2022-11-17T11:36:47.281Z,6.07
2022-11-17T11:39:33.615Z,5.83
2022-11-17T11:42:35.480Z,6.40
2022-11-17T11:45:20.089Z,5.90
2022-11-17T11:48:18.033Z,6.50
2022-11-17T11:50:58.193Z,5.93
2022-11-17T11:53:37.446Z,6.40
2022-11-17T11:56:19.135Z,6.33
2022-11-17T11:59:01.629Z,5.20
2022-11-17T12:01:39.469Z,5.73
2022-11-17T12:04:21.139Z,5.10
2022-11-17T12:07:00.986Z,6.37
2022-11-17T12:09:58.011Z,6.03
2022-11-17T12:12:32.800Z,5.40
2022-11-17T12:15:15.042Z,5.07
2022-11-17T12:18:00.980Z,5.60
2022-11-17T12:21:03.251Z,4.57
2022-11-17T12:24:08.885Z,4.97
2022-11-17T12:26:39.578Z,5.00
2022-11-17T12:29:32.713Z,5.30
2022-11-17T12:32:05.719Z,5.60
2022-11-17T12:34:37.778Z,4.90
2022-11-17T12:37:33.193Z,4.87
2022-11-17T12:40:06.398Z,5.87
2022-11-17T12:42:37.361Z,5.57
2022-11-17T12:45:09.584Z,5.20
2022-11-17T12:47:42.728Z,4.83
2022-11-17T12:50:46.719Z,6.10
2022-11-17T12:53:33.446Z,5.73
2022-11-17T12:56:41.766Z,5.60
2022-11-17T12:59:40.631Z,5.30
2022-11-17T13:02:27.602Z,5.37
2022-11-17T13:05:05.621Z,4.47
2022-11-17T13:07:36.371Z,4.90
2022-11-17T13:10:11.025Z,4.77
2022-11-17T13:12:44.772Z,4.83
2022-11-17T13:15:23.990Z,4.83
2022-11-17T13:17:55.911Z,5.50
2022-11-17T13:20:28.319Z,5.50
2022-11-17T13:23:03.410Z,5.30
2022-11-17T13:25:38.652Z,5.00
2022-11-17T13:28:25.699Z,5.53
2022-11-17T13:30:56.681Z,4.83
2022-11-17T13:33:29.524Z,4.83
2022-11-17T13:36:16.938Z,5.27
2022-11-17T13:38:51.864Z,5.60
2022-11-17T13:41:26.146Z,5.57
2022-11-17T13:43:57.359Z,4.83
2022-11-17T13:46:31.273Z,4.87
2022-11-17T13:49:02.161Z,4.90
2022-11-17T13:51:39.411Z,4.57
2022-11-17T13:54:19.110Z,5.07
2022-11-17T13:56:56.357Z,4.87
2022-11-17T13:59:29.748Z,4.80
2022-11-17T14:02:31.293Z,4.90
2022-11-17T14:05:36.172Z,5.33
2022-11-17T14:08:15.964Z,5.57
2022-11-17T14:10:46.968Z,5.50
2022-11-17T14:13:32.794Z,5.80
2022-11-17T14:16:02.979Z,6.13
2022-11-17T14:18:37.286Z,7.30
2022-11-17T14:21:09.338Z,6.13
2022-11-17T14:23:42.531Z,6.23
2022-11-17T14:26:29.690Z,6.43
2022-11-17T14:29:08.073Z,5.73
2022-11-17T14:31:39.755Z,5.47
2022-11-17T14:34:10.013Z,7.33
2022-11-17T14:36:42.085Z,5.80
2022-11-17T14:39:17.315Z,5.53
2022-11-17T14:41:49.123Z,6.63
2022-11-17T14:44:25.910Z,6.80
2022-11-17T14:50:22.852Z,6.47
2022-11-17T14:53:42.066Z,6.63
2022-11-17T14:56:31.599Z,6.40
2022-11-17T14:59:19.073Z,7.00
2022-11-17T15:02:05.594Z,6.73
2022-11-17T15:04:50.499Z,6.67
2022-11-17T15:07:30.766Z,6.00
2022-11-17T15:10:07.981Z,6.43
2022-11-17T15:12:38.713Z,7.00
2022-11-17T15:15:10.229Z,6.93
2022-11-17T15:17:44.872Z,6.60
2022-11-17T15:20:19.139Z,6.30
2022-11-17T15:22:51.969Z,7.13
2022-11-17T15:25:22.239Z,6.53
2022-11-17T15:27:53.389Z,7.43
2022-11-17T15:30:24.541Z,7.10
2022-11-17T15:32:56.079Z,7.53
2022-11-17T15:35:26.172Z,7.83
2022-11-17T15:37:56.901Z,7.47
2022-11-17T15:40:27.374Z,8.17
2022-11-17T15:42:57.520Z,8.97
2022-11-17T15:45:28.338Z,8.70
2022-11-17T15:48:00.201Z,8.83
2022-11-17T15:50:30.528Z,10.30
2022-11-17T15:53:04.404Z,11.87
2022-11-17T16:01:49.171Z,10.33
2022-11-17T16:20:49.516Z,11.03
2022-11-17T16:29:58.337Z,10.37
2022-11-17T16:32:32.239Z,11.60
2022-11-17T16:35:03.170Z,12.73
2022-11-17T16:37:38.243Z,12.90
2022-11-17T16:49:39.040Z,12.90
2022-11-17T16:52:19.461Z,11.70
2022-11-17T16:55:10.492Z,13.30
2022-11-17T16:57:42.409Z,11.50
2022-11-17T17:00:24.026Z,10.67
2022-11-17T17:17:58.250Z,11.60
2022-11-17T17:20:40.978Z,11.70
2022-11-17T17:23:12.608Z,12.23
2022-11-17T17:25:44.685Z,11.93
2022-11-17T17:28:17.086Z,11.60
2022-11-17T17:30:56.348Z,10.57
2022-11-17T17:33:27.114Z,10.83
2022-11-17T17:35:57.685Z,11.30
2022-11-17T17:38:32.864Z,13.63
2022-11-17T17:41:08.314Z,13.20
2022-11-17T17:43:39.577Z,13.00
2022-11-17T17:46:15.730Z,13.20
2022-11-17T17:48:48.103Z,13.47
2022-11-17T17:51:21.054Z,11.97
2022-11-17T17:53:53.587Z,13.10
2022-11-17T17:56:25.670Z,13.43
2022-11-17T17:58:57.784Z,13.07
2022-11-17T18:01:35.309Z,12.77
2022-11-17T18:04:09.092Z,11.30
2022-11-17T18:06:46.569Z,11.43
2022-11-17T18:09:20.856Z,10.80
2022-11-17T18:11:53.186Z,12.43
2022-11-17T18:14:26.175Z,11.87
2022-11-17T18:16:59.200Z,12.33
2022-11-17T18:19:32.932Z,11.90
2022-11-17T18:22:04.585Z,12.63
2022-11-17T18:24:39.348Z,12.83
2022-11-17T18:27:10.848Z,13.53
2022-11-17T18:29:42.404Z,15.07
2022-11-17T18:32:14.815Z,14.07
2022-11-17T18:34:45.926Z,14.57
2022-11-17T18:37:17.679Z,12.93
2022-11-17T18:40:03.894Z,12.52
2022-11-17T18:42:43.702Z,12.87
2022-11-17T18:45:17.177Z,15.87
2022-11-17T18:47:49.841Z,13.47
2022-11-17T18:50:20.955Z,13.50
2022-11-17T18:52:51.808Z,12.40
2022-11-17T18:55:25.842Z,12.27
2022-11-17T18:57:59.498Z,10.90
2022-11-17T19:00:31.401Z,11.30
2022-11-17T19:03:02.248Z,10.80
2022-11-17T19:05:36.508Z,10.33
2022-11-17T19:08:10.068Z,12.87
2022-11-17T19:10:52.510Z,12.63
2022-11-17T19:13:25.500Z,12.20
2022-11-17T19:15:56.920Z,12.40
2022-11-17T19:18:28.765Z,13.37
2022-11-17T19:21:06.639Z,13.67
2022-11-17T19:23:40.041Z,13.57
2022-11-17T19:26:15.403Z,13.87
2022-11-17T19:28:48.630Z,12.07
2022-11-17T19:31:21.352Z,12.37
2022-11-17T19:33:53.269Z,12.43
2022-11-17T20:05:49.662Z,12.87
2022-11-17T20:08:21.412Z,12.57
2022-11-17T20:10:52.455Z,12.70
2022-11-17T20:13:24.514Z,12.47
2022-11-17T20:16:00.864Z,13.93
2022-11-17T20:18:32.784Z,14.23
2022-11-17T20:21:09.006Z,15.03
2022-11-17T20:23:41.319Z,14.83
2022-11-17T20:26:18.318Z,13.97
2022-11-17T20:28:52.622Z,14.37
2022-11-17T20:31:26.352Z,11.33
2022-11-17T20:34:00.043Z,12.30
2022-11-17T20:36:31.971Z,13.90
2022-11-17T20:39:04.101Z,14.97
2022-11-17T20:41:35.524Z,13.60
2022-11-17T20:44:24.333Z,14.10
2022-11-17T20:46:58.880Z,13.93
2022-11-17T20:49:30.452Z,19.13
2022-11-17T20:52:18.215Z,14.50
2022-11-17T20:54:50.251Z,13.00
2022-11-17T20:57:21.551Z,12.23
2022-11-17T20:59:52.249Z,14.17
2022-11-17T21:02:24.389Z,11.83
2022-11-17T21:04:54.995Z,11.63
2022-11-17T21:07:25.624Z,12.80
2022-11-17T21:09:55.870Z,13.10
2022-11-17T21:12:29.270Z,14.00
2022-11-17T21:14:59.905Z,13.83
2022-11-17T21:18:01.367Z,12.80
2022-11-17T21:20:34.346Z,13.87
2022-11-17T21:23:05.302Z,13.70
2022-11-17T21:25:38.737Z,12.83
2022-11-17T21:28:08.891Z,13.50
2022-11-17T21:30:39.287Z,12.67
2022-11-17T21:33:17.260Z,13.20
2022-11-17T21:35:49.635Z,12.33
2022-11-17T21:38:22.006Z,13.63
2022-11-17T21:40:53.458Z,13.17
2022-11-17T21:43:23.957Z,13.37
2022-11-17T21:45:54.376Z,13.63
2022-11-17T21:48:32.750Z,13.20
2022-11-17T21:51:02.944Z,11.80
2022-11-17T21:53:32.982Z,12.13
2022-11-17T21:56:03.469Z,11.80
2022-11-17T21:58:34.167Z,12.70
2022-11-17T22:01:08.664Z,12.80
2022-11-17T22:03:40.556Z,13.43
2022-11-17T22:06:12.380Z,13.23
2022-11-17T22:08:45.346Z,14.30
2022-11-17T22:11:17.021Z,13.50
2022-11-17T22:13:46.680Z,13.27
2022-11-17T22:16:16.943Z,13.63
2022-11-17T22:18:48.615Z,12.77
2022-11-17T22:21:18.458Z,13.03
2022-11-17T22:23:48.211Z,13.70
2022-11-17T22:26:17.742Z,14.20
2022-11-17T22:28:47.591Z,13.10
2022-11-17T22:31:17.429Z,13.87
2022-11-17T22:33:49.015Z,13.47
2022-11-17T22:36:18.977Z,14.10
2022-11-17T22:38:52.675Z,14.40
2022-11-17T22:41:25.857Z,13.57
2022-11-17T22:44:13.978Z,14.37
2022-11-17T22:46:46.115Z,14.10
2022-11-17T22:49:17.583Z,14.43
2022-11-17T22:52:07.564Z,14.53
2022-11-17T22:54:41.294Z,14.70
2022-11-17T22:57:12.096Z,15.10
2022-11-17T22:59:42.095Z,13.87
2022-11-17T23:02:12.112Z,14.13
2022-11-17T23:04:43.392Z,14.13
2022-11-17T23:07:13.329Z,15.80
2022-11-17T23:09:44.920Z,14.47
2022-11-17T23:12:16.083Z,14.00
2022-11-17T23:14:46.552Z,16.30
2022-11-17T23:17:19.958Z,15.03
2022-11-17T23:19:51.230Z,15.70
2022-11-17T23:22:20.892Z,17.13
2022-11-17T23:24:50.874Z,16.43
2022-11-17T23:27:23.954Z,17.67
2022-11-17T23:29:59.186Z,16.70
2022-11-17T23:32:29.312Z,19.47
2022-11-17T23:35:00.419Z,17.43
2022-11-17T23:37:30.858Z,17.87
2022-11-17T23:40:08.691Z,21.07
2022-11-17T23:42:42.915Z,20.03
2022-11-17T23:45:13.520Z,19.30
2022-11-17T23:47:43.597Z,18.23
2022-11-17T23:50:14.871Z,18.43
2022-11-17T23:52:44.485Z,17.63
2022-11-17T23:55:14.474Z,16.33
2022-11-17T23:57:44.192Z,16.23
